sensor_id;sensor_type;location;lat;lon;timestamp;temperature;humidity
66670;DHT22;53568;52.164;4.472;2023-07-13T00:00:03;20.38;65.84
66670;DHT22;53568;52.164;4.472;2023-07-13T00:02:34;20.38;65.14
66670;DHT22;53568;52.164;4.472;2023-07-13T00:05:00;20.41;64.69
66670;DHT22;53568;52.164;4.472;2023-07-13T00:07:25;20.43;64.11
66670;DHT22;53568;52.164;4.472;2023-07-13T00:09:51;20.53;63.88
66670;DHT22;53568;52.164;4.472;2023-07-13T00:12:29;20.59;63.76
66670;DHT22;53568;52.164;4.472;2023-07-13T00:14:59;20.63;63.75
66670;DHT22;53568;52.164;4.472;2023-07-13T00:17:26;20.59;63.79
66670;DHT22;53568;52.164;4.472;2023-07-13T00:19:52;20.62;63.94
66670;DHT22;53568;52.164;4.472;2023-07-13T00:22:19;20.65;63.84
66670;DHT22;53568;52.164;4.472;2023-07-13T00:24:45;20.73;63.83
66670;DHT22;53568;52.164;4.472;2023-07-13T00:27:11;20.75;63.89
66670;DHT22;53568;52.164;4.472;2023-07-13T00:29:37;20.71;63.93
66670;DHT22;53568;52.164;4.472;2023-07-13T00:32:04;20.66;64.35
66670;DHT22;53568;52.164;4.472;2023-07-13T00:34:30;20.69;64.38
66670;DHT22;53568;52.164;4.472;2023-07-13T00:36:56;20.65;64.55
66670;DHT22;53568;52.164;4.472;2023-07-13T00:39:21;20.57;65.08
66670;DHT22;53568;52.164;4.472;2023-07-13T00:41:48;20.61;65.19
66670;DHT22;53568;52.164;4.472;2023-07-13T00:44:15;20.57;65.22
66670;DHT22;53568;52.164;4.472;2023-07-13T00:46:41;20.55;65.45
66670;DHT22;53568;52.164;4.472;2023-07-13T00:49:10;20.56;65.19
66670;DHT22;53568;52.164;4.472;2023-07-13T00:51:49;20.53;65.16
66670;DHT22;53568;52.164;4.472;2023-07-13T00:54:21;20.51;64.73
66670;DHT22;53568;52.164;4.472;2023-07-13T00:56:51;20.48;64.82
66670;DHT22;53568;52.164;4.472;2023-07-13T00:59:20;20.49;64.33
66670;DHT22;53568;52.164;4.472;2023-07-13T01:01:47;20.42;64.49
66670;DHT22;53568;52.164;4.472;2023-07-13T01:04:13;20.41;64.47
66670;DHT22;53568;52.164;4.472;2023-07-13T01:06:40;20.39;64.10
66670;DHT22;53568;52.164;4.472;2023-07-13T01:09:08;20.38;64.02
66670;DHT22;53568;52.164;4.472;2023-07-13T01:11:33;20.42;63.59
66670;DHT22;53568;52.164;4.472;2023-07-13T01:14:01;20.45;63.26
66670;DHT22;53568;52.164;4.472;2023-07-13T01:16:32;20.49;62.95
66670;DHT22;53568;52.164;4.472;2023-07-13T01:18:58;20.45;62.98
66670;DHT22;53568;52.164;4.472;2023-07-13T01:21:26;20.41;62.81
66670;DHT22;53568;52.164;4.472;2023-07-13T01:23:52;20.35;62.49
66670;DHT22;53568;52.164;4.472;2023-07-13T01:26:18;20.33;62.52
66670;DHT22;53568;52.164;4.472;2023-07-13T01:28:44;20.25;62.53
66670;DHT22;53568;52.164;4.472;2023-07-13T01:31:10;20.25;62.76
66670;DHT22;53568;52.164;4.472;2023-07-13T01:33:37;20.26;62.73
66670;DHT22;53568;52.164;4.472;2023-07-13T01:36:06;20.29;62.62
66670;DHT22;53568;52.164;4.472;2023-07-13T01:38:34;20.26;62.91
66670;DHT22;53568;52.164;4.472;2023-07-13T01:41:00;20.28;62.87
66670;DHT22;53568;52.164;4.472;2023-07-13T01:43:25;20.25;63.18
66670;DHT22;53568;52.164;4.472;2023-07-13T01:45:51;20.19;63.42
66670;DHT22;53568;52.164;4.472;2023-07-13T01:48:17;20.18;63.54
66670;DHT22;53568;52.164;4.472;2023-07-13T01:50:43;20.14;63.70
66670;DHT22;53568;52.164;4.472;2023-07-13T01:53:08;20.12;63.86
66670;DHT22;53568;52.164;4.472;2023-07-13T01:55:35;20.17;63.81
66670;DHT22;53568;52.164;4.472;2023-07-13T01:58:01;20.07;64.01
66670;DHT22;53568;52.164;4.472;2023-07-13T02:00:27;20.05;64.26
66670;DHT22;53568;52.164;4.472;2023-07-13T02:02:53;20.01;64.37
66670;DHT22;53568;52.164;4.472;2023-07-13T02:05:19;19.97;64.64
66670;DHT22;53568;52.164;4.472;2023-07-13T02:07:45;19.97;64.69
66670;DHT22;53568;52.164;4.472;2023-07-13T02:10:11;19.88;65.07
66670;DHT22;53568;52.164;4.472;2023-07-13T02:12:38;19.91;65.26
66670;DHT22;53568;52.164;4.472;2023-07-13T02:15:05;19.89;65.10
66670;DHT22;53568;52.164;4.472;2023-07-13T02:17:30;19.94;65.27
66670;DHT22;53568;52.164;4.472;2023-07-13T02:19:57;19.92;65.29
66670;DHT22;53568;52.164;4.472;2023-07-13T02:22:23;19.88;65.60
66670;DHT22;53568;52.164;4.472;2023-07-13T02:24:49;19.91;65.85
66670;DHT22;53568;52.164;4.472;2023-07-13T02:27:15;19.92;65.71
66670;DHT22;53568;52.164;4.472;2023-07-13T02:29:40;19.97;65.83
66670;DHT22;53568;52.164;4.472;2023-07-13T02:32:06;19.97;65.79
66670;DHT22;53568;52.164;4.472;2023-07-13T02:34:32;20.01;65.85
66670;DHT22;53568;52.164;4.472;2023-07-13T02:36:57;20.08;65.71
66670;DHT22;53568;52.164;4.472;2023-07-13T02:39:23;20.11;65.56
66670;DHT22;53568;52.164;4.472;2023-07-13T02:41:48;20.04;65.85
66670;DHT22;53568;52.164;4.472;2023-07-13T02:44:15;20.02;66.03
66670;DHT22;53568;52.164;4.472;2023-07-13T02:46:41;19.99;66.23
66670;DHT22;53568;52.164;4.472;2023-07-13T02:49:06;20.04;66.37
66670;DHT22;53568;52.164;4.472;2023-07-13T02:51:32;20.09;66.31
66670;DHT22;53568;52.164;4.472;2023-07-13T02:54:02;20.12;66.24
66670;DHT22;53568;52.164;4.472;2023-07-13T02:56:30;20.17;66.13
66670;DHT22;53568;52.164;4.472;2023-07-13T02:58:56;20.09;66.49
66670;DHT22;53568;52.164;4.472;2023-07-13T03:01:22;20.11;66.69
66670;DHT22;53568;52.164;4.472;2023-07-13T03:03:48;20.12;66.54
66670;DHT22;53568;52.164;4.472;2023-07-13T03:06:15;20.14;66.84
66670;DHT22;53568;52.164;4.472;2023-07-13T03:08:41;20.11;66.92
66670;DHT22;53568;52.164;4.472;2023-07-13T03:11:10;20.09;67.17
66670;DHT22;53568;52.164;4.472;2023-07-13T03:13:36;20.07;67.25
66670;DHT22;53568;52.164;4.472;2023-07-13T03:16:02;20.09;67.39
66670;DHT22;53568;52.164;4.472;2023-07-13T03:18:28;20.05;67.70
66670;DHT22;53568;52.164;4.472;2023-07-13T03:20:53;20.08;67.77
66670;DHT22;53568;52.164;4.472;2023-07-13T03:23:21;20.15;67.73
66670;DHT22;53568;52.164;4.472;2023-07-13T03:25:47;20.21;67.70
66670;DHT22;53568;52.164;4.472;2023-07-13T03:28:14;20.21;67.82
66670;DHT22;53568;52.164;4.472;2023-07-13T03:30:40;20.19;68.19
66670;DHT22;53568;52.164;4.472;2023-07-13T03:33:06;20.21;68.45
66670;DHT22;53568;52.164;4.472;2023-07-13T03:35:31;20.09;68.91
66670;DHT22;53568;52.164;4.472;2023-07-13T03:37:58;20.02;69.48
66670;DHT22;53568;52.164;4.472;2023-07-13T03:40:26;20.01;69.74
66670;DHT22;53568;52.164;4.472;2023-07-13T03:42:52;19.99;69.92
66670;DHT22;53568;52.164;4.472;2023-07-13T03:45:18;20.02;70.04
66670;DHT22;53568;52.164;4.472;2023-07-13T03:47:44;20.07;70.11
66670;DHT22;53568;52.164;4.472;2023-07-13T03:50:10;20.09;70.28
66670;DHT22;53568;52.164;4.472;2023-07-13T03:52:36;20.09;70.51
66670;DHT22;53568;52.164;4.472;2023-07-13T03:55:01;20.09;70.66
66670;DHT22;53568;52.164;4.472;2023-07-13T03:57:27;20.14;70.77
66670;DHT22;53568;52.164;4.472;2023-07-13T03:59:53;20.14;70.84
66670;DHT22;53568;52.164;4.472;2023-07-13T04:02:21;20.15;70.93
66670;DHT22;53568;52.164;4.472;2023-07-13T04:04:46;20.18;70.99
66670;DHT22;53568;52.164;4.472;2023-07-13T04:07:12;20.19;71.10
66670;DHT22;53568;52.164;4.472;2023-07-13T04:09:38;20.17;71.10
66670;DHT22;53568;52.164;4.472;2023-07-13T04:12:04;20.19;71.05
66670;DHT22;53568;52.164;4.472;2023-07-13T04:14:29;20.12;71.17
66670;DHT22;53568;52.164;4.472;2023-07-13T04:16:55;20.12;71.31
66670;DHT22;53568;52.164;4.472;2023-07-13T04:19:21;20.07;71.58
66670;DHT22;53568;52.164;4.472;2023-07-13T04:21:47;20.05;71.57
66670;DHT22;53568;52.164;4.472;2023-07-13T04:24:12;19.99;71.83
66670;DHT22;53568;52.164;4.472;2023-07-13T04:26:38;20.01;71.71
66670;DHT22;53568;52.164;4.472;2023-07-13T04:29:05;19.99;71.73
66670;DHT22;53568;52.164;4.472;2023-07-13T04:31:31;20.02;71.67
66670;DHT22;53568;52.164;4.472;2023-07-13T04:33:57;20.09;71.35
66670;DHT22;53568;52.164;4.472;2023-07-13T04:36:23;20.17;71.30
66670;DHT22;53568;52.164;4.472;2023-07-13T04:38:52;20.18;71.02
66670;DHT22;53568;52.164;4.472;2023-07-13T04:41:19;20.22;70.57
66670;DHT22;53568;52.164;4.472;2023-07-13T04:43:45;20.28;70.46
66670;DHT22;53568;52.164;4.472;2023-07-13T04:46:14;20.29;70.26
66670;DHT22;53568;52.164;4.472;2023-07-13T04:48:40;20.32;70.05
66670;DHT22;53568;52.164;4.472;2023-07-13T04:51:06;20.25;70.15
66670;DHT22;53568;52.164;4.472;2023-07-13T04:53:33;20.29;69.94
66670;DHT22;53568;52.164;4.472;2023-07-13T04:56:00;20.32;69.80
66670;DHT22;53568;52.164;4.472;2023-07-13T04:58:26;20.42;69.75
66670;DHT22;53568;52.164;4.472;2023-07-13T05:00:53;20.51;69.45
66670;DHT22;53568;52.164;4.472;2023-07-13T05:03:19;20.62;69.10
66670;DHT22;53568;52.164;4.472;2023-07-13T05:06:04;20.75;68.77
66670;DHT22;53568;52.164;4.472;2023-07-13T05:08:30;20.85;68.25
66670;DHT22;53568;52.164;4.472;2023-07-13T05:10:56;21.00;67.99
66670;DHT22;53568;52.164;4.472;2023-07-13T05:13:22;21.10;67.30
66670;DHT22;53568;52.164;4.472;2023-07-13T05:15:59;21.10;66.69
66670;DHT22;53568;52.164;4.472;2023-07-13T05:18:26;21.06;67.22
66670;DHT22;53568;52.164;4.472;2023-07-13T05:21:04;21.08;66.85
66670;DHT22;53568;52.164;4.472;2023-07-13T05:23:31;21.13;66.34
66670;DHT22;53568;52.164;4.472;2023-07-13T05:25:58;21.06;66.37
66670;DHT22;53568;52.164;4.472;2023-07-13T05:28:25;21.07;66.12
66670;DHT22;53568;52.164;4.472;2023-07-13T05:30:50;21.16;66.09
66670;DHT22;53568;52.164;4.472;2023-07-13T05:33:17;21.20;65.80
66670;DHT22;53568;52.164;4.472;2023-07-13T05:35:43;21.16;65.71
66670;DHT22;53568;52.164;4.472;2023-07-13T05:38:08;21.23;65.69
66670;DHT22;53568;52.164;4.472;2023-07-13T05:40:34;21.17;65.68
66670;DHT22;53568;52.164;4.472;2023-07-13T05:42:59;21.28;65.53
66670;DHT22;53568;52.164;4.472;2023-07-13T05:45:25;21.37;65.21
66670;DHT22;53568;52.164;4.472;2023-07-13T05:47:51;21.39;64.66
66670;DHT22;53568;52.164;4.472;2023-07-13T05:50:16;21.24;64.50
66670;DHT22;53568;52.164;4.472;2023-07-13T05:52:42;21.19;64.77
66670;DHT22;53568;52.164;4.472;2023-07-13T05:55:08;21.06;64.38
66670;DHT22;53568;52.164;4.472;2023-07-13T05:57:33;21.00;64.68
66670;DHT22;53568;52.164;4.472;2023-07-13T05:59:59;20.96;64.84
66670;DHT22;53568;52.164;4.472;2023-07-13T06:02:24;20.96;64.54
66670;DHT22;53568;52.164;4.472;2023-07-13T06:04:51;20.87;64.74
66670;DHT22;53568;52.164;4.472;2023-07-13T06:07:17;20.86;64.81
66670;DHT22;53568;52.164;4.472;2023-07-13T06:09:43;20.90;65.03
66670;DHT22;53568;52.164;4.472;2023-07-13T06:12:08;20.93;65.31
66670;DHT22;53568;52.164;4.472;2023-07-13T06:14:34;20.85;65.53
66670;DHT22;53568;52.164;4.472;2023-07-13T06:17:00;20.86;65.22
66670;DHT22;53568;52.164;4.472;2023-07-13T06:19:25;20.79;65.41
66670;DHT22;53568;52.164;4.472;2023-07-13T06:21:50;20.80;65.32
66670;DHT22;53568;52.164;4.472;2023-07-13T06:24:16;20.83;65.06
66670;DHT22;53568;52.164;4.472;2023-07-13T06:26:42;20.86;64.84
66670;DHT22;53568;52.164;4.472;2023-07-13T06:29:07;20.83;64.99
66670;DHT22;53568;52.164;4.472;2023-07-13T06:31:33;20.82;65.37
66670;DHT22;53568;52.164;4.472;2023-07-13T06:33:58;20.92;65.05
66670;DHT22;53568;52.164;4.472;2023-07-13T06:36:24;21.02;64.85
66670;DHT22;53568;52.164;4.472;2023-07-13T06:38:49;21.13;64.59
66670;DHT22;53568;52.164;4.472;2023-07-13T06:41:15;21.14;63.81
66670;DHT22;53568;52.164;4.472;2023-07-13T06:43:41;21.16;63.93
66670;DHT22;53568;52.164;4.472;2023-07-13T06:46:06;21.26;63.39
66670;DHT22;53568;52.164;4.472;2023-07-13T06:48:32;21.22;62.86
66670;DHT22;53568;52.164;4.472;2023-07-13T06:50:57;21.19;62.19
66670;DHT22;53568;52.164;4.472;2023-07-13T06:53:23;21.17;62.62
66670;DHT22;53568;52.164;4.472;2023-07-13T06:55:49;21.17;62.74
66670;DHT22;53568;52.164;4.472;2023-07-13T06:58:16;21.02;60.72
66670;DHT22;53568;52.164;4.472;2023-07-13T07:00:43;21.04;60.81
66670;DHT22;53568;52.164;4.472;2023-07-13T07:03:08;21.10;61.47
66670;DHT22;53568;52.164;4.472;2023-07-13T07:05:34;21.10;61.84
66670;DHT22;53568;52.164;4.472;2023-07-13T07:08:00;21.08;61.25
66670;DHT22;53568;52.164;4.472;2023-07-13T07:10:25;21.06;62.03
66670;DHT22;53568;52.164;4.472;2023-07-13T07:12:51;21.08;62.54
66670;DHT22;53568;52.164;4.472;2023-07-13T07:15:17;20.97;63.15
66670;DHT22;53568;52.164;4.472;2023-07-13T07:17:42;20.96;63.09
66670;DHT22;53568;52.164;4.472;2023-07-13T07:20:09;20.95;63.23
66670;DHT22;53568;52.164;4.472;2023-07-13T07:22:35;20.95;63.39
66670;DHT22;53568;52.164;4.472;2023-07-13T07:25:00;21.08;63.09
66670;DHT22;53568;52.164;4.472;2023-07-13T07:27:26;21.28;62.95
66670;DHT22;53568;52.164;4.472;2023-07-13T07:29:52;21.40;60.49
66670;DHT22;53568;52.164;4.472;2023-07-13T07:32:18;21.58;60.24
66670;DHT22;53568;52.164;4.472;2023-07-13T07:34:44;21.57;57.75
66670;DHT22;53568;52.164;4.472;2023-07-13T07:37:11;21.73;57.81
66670;DHT22;53568;52.164;4.472;2023-07-13T07:39:37;21.77;57.48
66670;DHT22;53568;52.164;4.472;2023-07-13T07:42:03;21.74;58.33
66670;DHT22;53568;52.164;4.472;2023-07-13T07:44:31;21.71;58.47
66670;DHT22;53568;52.164;4.472;2023-07-13T07:46:56;21.71;58.40
66670;DHT22;53568;52.164;4.472;2023-07-13T07:49:22;21.73;59.78
66670;DHT22;53568;52.164;4.472;2023-07-13T07:51:47;21.77;61.02
66670;DHT22;53568;52.164;4.472;2023-07-13T07:54:13;21.82;61.70
66670;DHT22;53568;52.164;4.472;2023-07-13T07:56:40;21.84;61.75
66670;DHT22;53568;52.164;4.472;2023-07-13T07:59:05;21.92;61.84
66670;DHT22;53568;52.164;4.472;2023-07-13T08:01:31;21.80;61.14
66670;DHT22;53568;52.164;4.472;2023-07-13T08:03:56;21.60;61.77
66670;DHT22;53568;52.164;4.472;2023-07-13T08:06:23;21.46;62.86
66670;DHT22;53568;52.164;4.472;2023-07-13T08:08:48;21.43;63.12
66670;DHT22;53568;52.164;4.472;2023-07-13T08:11:14;21.27;63.52
66670;DHT22;53568;52.164;4.472;2023-07-13T08:13:39;21.08;63.95
66670;DHT22;53568;52.164;4.472;2023-07-13T08:16:05;21.08;64.04
66670;DHT22;53568;52.164;4.472;2023-07-13T08:18:31;21.04;64.54
66670;DHT22;53568;52.164;4.472;2023-07-13T08:20:57;21.07;64.93
66670;DHT22;53568;52.164;4.472;2023-07-13T08:23:24;21.03;64.98
66670;DHT22;53568;52.164;4.472;2023-07-13T08:25:51;21.07;64.55
66670;DHT22;53568;52.164;4.472;2023-07-13T08:28:17;21.22;64.67
66670;DHT22;53568;52.164;4.472;2023-07-13T08:30:42;21.30;64.61
66670;DHT22;53568;52.164;4.472;2023-07-13T08:33:08;21.33;63.44
66670;DHT22;53568;52.164;4.472;2023-07-13T08:35:33;21.46;63.07
66670;DHT22;53568;52.164;4.472;2023-07-13T08:37:59;21.55;62.46
66670;DHT22;53568;52.164;4.472;2023-07-13T08:40:26;21.62;62.71
66670;DHT22;53568;52.164;4.472;2023-07-13T08:42:59;21.60;61.65
66670;DHT22;53568;52.164;4.472;2023-07-13T08:48:31;21.51;61.73
66670;DHT22;53568;52.164;4.472;2023-07-13T08:53:37;21.44;62.38
66670;DHT22;53568;52.164;4.472;2023-07-13T08:56:11;21.40;62.40
66670;DHT22;53568;52.164;4.472;2023-07-13T08:58:41;21.37;62.71
66670;DHT22;53568;52.164;4.472;2023-07-13T09:01:24;21.44;63.17
66670;DHT22;53568;52.164;4.472;2023-07-13T09:04:30;21.22;62.72
66670;DHT22;53568;52.164;4.472;2023-07-13T09:07:29;21.02;63.64
66670;DHT22;53568;52.164;4.472;2023-07-13T09:10:14;20.97;64.50
66670;DHT22;53568;52.164;4.472;2023-07-13T09:12:55;20.92;64.48
66670;DHT22;53568;52.164;4.472;2023-07-13T09:15:24;20.90;64.12
66670;DHT22;53568;52.164;4.472;2023-07-13T09:17:52;21.04;63.32
66670;DHT22;53568;52.164;4.472;2023-07-13T09:20:33;21.08;62.91
66670;DHT22;53568;52.164;4.472;2023-07-13T09:23:06;21.27;63.51
66670;DHT22;53568;52.164;4.472;2023-07-13T09:25:37;21.40;63.78
66670;DHT22;53568;52.164;4.472;2023-07-13T09:28:13;21.39;64.16
66670;DHT22;53568;52.164;4.472;2023-07-13T09:31:07;21.28;64.09
66670;DHT22;53568;52.164;4.472;2023-07-13T09:33:35;21.22;63.22
66670;DHT22;53568;52.164;4.472;2023-07-13T09:36:01;21.30;63.09
66670;DHT22;53568;52.164;4.472;2023-07-13T09:38:29;21.30;63.95
66670;DHT22;53568;52.164;4.472;2023-07-13T09:41:37;21.37;64.16
66670;DHT22;53568;52.164;4.472;2023-07-13T09:44:17;21.47;63.13
66670;DHT22;53568;52.164;4.472;2023-07-13T09:46:54;21.57;62.55
66670;DHT22;53568;52.164;4.472;2023-07-13T09:49:25;21.54;61.74
66670;DHT22;53568;52.164;4.472;2023-07-13T09:51:59;21.51;61.97
66670;DHT22;53568;52.164;4.472;2023-07-13T09:54:25;21.57;62.06
66670;DHT22;53568;52.164;4.472;2023-07-13T09:56:58;21.73;62.40
66670;DHT22;53568;52.164;4.472;2023-07-13T09:59:29;21.77;62.43
66670;DHT22;53568;52.164;4.472;2023-07-13T10:01:55;21.92;61.65
66670;DHT22;53568;52.164;4.472;2023-07-13T10:04:30;21.94;60.46
66670;DHT22;53568;52.164;4.472;2023-07-13T10:07:08;22.00;60.64
66670;DHT22;53568;52.164;4.472;2023-07-13T10:09:34;21.91;61.42
66670;DHT22;53568;52.164;4.472;2023-07-13T10:12:00;21.95;61.53
66670;DHT22;53568;52.164;4.472;2023-07-13T10:14:28;21.88;59.42
66670;DHT22;53568;52.164;4.472;2023-07-13T10:17:00;21.90;60.50
66670;DHT22;53568;52.164;4.472;2023-07-13T10:19:35;21.82;60.84
66670;DHT22;53568;52.164;4.472;2023-07-13T10:22:10;21.73;61.74
66670;DHT22;53568;52.164;4.472;2023-07-13T10:24:39;21.61;61.69
66670;DHT22;53568;52.164;4.472;2023-07-13T10:29:48;21.67;61.23
66670;DHT22;53568;52.164;4.472;2023-07-13T10:32:15;21.65;61.77
66670;DHT22;53568;52.164;4.472;2023-07-13T10:34:45;21.71;61.79
66670;DHT22;53568;52.164;4.472;2023-07-13T10:37:20;21.64;61.00
66670;DHT22;53568;52.164;4.472;2023-07-13T10:39:48;21.61;61.89
66670;DHT22;53568;52.164;4.472;2023-07-13T10:42:32;21.64;61.76
66670;DHT22;53568;52.164;4.472;2023-07-13T10:45:00;21.68;62.11
66670;DHT22;53568;52.164;4.472;2023-07-13T10:47:27;21.51;61.55
66670;DHT22;53568;52.164;4.472;2023-07-13T10:49:57;21.43;61.93
66670;DHT22;53568;52.164;4.472;2023-07-13T10:52:44;21.31;61.78
66670;DHT22;53568;52.164;4.472;2023-07-13T10:55:34;21.47;61.52
66670;DHT22;53568;52.164;4.472;2023-07-13T10:58:03;21.62;61.82
66670;DHT22;53568;52.164;4.472;2023-07-13T11:03:17;21.70;61.14
66670;DHT22;53568;52.164;4.472;2023-07-13T11:05:44;21.55;61.93
66670;DHT22;53568;52.164;4.472;2023-07-13T11:08:32;21.57;62.60
66670;DHT22;53568;52.164;4.472;2023-07-13T11:10:58;21.55;62.46
66670;DHT22;53568;52.164;4.472;2023-07-13T11:13:57;21.75;61.78
66670;DHT22;53568;52.164;4.472;2023-07-13T11:21:31;21.90;60.50
66670;DHT22;53568;52.164;4.472;2023-07-13T11:24:14;21.97;60.93
66670;DHT22;53568;52.164;4.472;2023-07-13T11:26:51;21.90;60.75
66670;DHT22;53568;52.164;4.472;2023-07-13T11:29:36;22.01;59.70
66670;DHT22;53568;52.164;4.472;2023-07-13T11:32:23;22.02;60.45
66670;DHT22;53568;52.164;4.472;2023-07-13T11:34:53;22.02;60.20
66670;DHT22;53568;52.164;4.472;2023-07-13T11:37:19;22.19;60.46
66670;DHT22;53568;52.164;4.472;2023-07-13T11:39:48;22.31;61.39
66670;DHT22;53568;52.164;4.472;2023-07-13T11:42:18;22.21;61.44
66670;DHT22;53568;52.164;4.472;2023-07-13T11:44:50;22.16;60.57
66670;DHT22;53568;52.164;4.472;2023-07-13T11:47:22;22.04;61.29
66670;DHT22;53568;52.164;4.472;2023-07-13T11:49:51;22.16;61.97
66670;DHT22;53568;52.164;4.472;2023-07-13T11:52:21;22.31;62.08
66670;DHT22;53568;52.164;4.472;2023-07-13T11:54:51;22.26;61.10
66670;DHT22;53568;52.164;4.472;2023-07-13T11:57:33;22.44;60.44
66670;DHT22;53568;52.164;4.472;2023-07-13T12:00:21;22.48;60.15
66670;DHT22;53568;52.164;4.472;2023-07-13T12:02:51;22.39;59.98
66670;DHT22;53568;52.164;4.472;2023-07-13T12:05:20;22.21;59.62
66670;DHT22;53568;52.164;4.472;2023-07-13T12:07:58;22.18;59.82
66670;DHT22;53568;52.164;4.472;2023-07-13T12:10:42;22.11;60.24
66670;DHT22;53568;52.164;4.472;2023-07-13T12:13:13;22.22;59.21
66670;DHT22;53568;52.164;4.472;2023-07-13T12:15:42;22.29;59.86
66670;DHT22;53568;52.164;4.472;2023-07-13T12:18:32;22.19;60.29
66670;DHT22;53568;52.164;4.472;2023-07-13T12:20:59;22.14;58.87
66670;DHT22;53568;52.164;4.472;2023-07-13T12:23:44;22.05;59.82
66670;DHT22;53568;52.164;4.472;2023-07-13T12:26:13;22.14;59.18
66670;DHT22;53568;52.164;4.472;2023-07-13T12:28:48;22.16;58.63
66670;DHT22;53568;52.164;4.472;2023-07-13T12:31:44;22.29;59.28
66670;DHT22;53568;52.164;4.472;2023-07-13T12:34:23;22.22;59.99
66670;DHT22;53568;52.164;4.472;2023-07-13T12:37:10;22.32;60.35
66670;DHT22;53568;52.164;4.472;2023-07-13T12:39:53;22.18;58.67
66670;DHT22;53568;52.164;4.472;2023-07-13T12:44:53;21.98;59.15
66670;DHT22;53568;52.164;4.472;2023-07-13T12:47:25;22.01;59.36
66670;DHT22;53568;52.164;4.472;2023-07-13T12:49:58;22.22;59.66
66670;DHT22;53568;52.164;4.472;2023-07-13T12:52:30;22.12;59.13
66670;DHT22;53568;52.164;4.472;2023-07-13T12:55:14;22.01;59.36
66670;DHT22;53568;52.164;4.472;2023-07-13T12:57:43;22.11;60.30
66670;DHT22;53568;52.164;4.472;2023-07-13T13:00:25;22.09;59.21
66670;DHT22;53568;52.164;4.472;2023-07-13T13:03:01;22.22;59.38
66670;DHT22;53568;52.164;4.472;2023-07-13T13:05:30;22.46;59.13
66670;DHT22;53568;52.164;4.472;2023-07-13T13:08:00;22.46;58.84
66670;DHT22;53568;52.164;4.472;2023-07-13T13:10:25;22.49;58.72
66670;DHT22;53568;52.164;4.472;2023-07-13T13:12:52;22.46;58.98
66670;DHT22;53568;52.164;4.472;2023-07-13T13:15:18;22.34;58.95
66670;DHT22;53568;52.164;4.472;2023-07-13T13:17:58;22.21;59.69
66670;DHT22;53568;52.164;4.472;2023-07-13T13:20:24;22.15;58.34
66670;DHT22;53568;52.164;4.472;2023-07-13T13:22:51;22.09;58.47
66670;DHT22;53568;52.164;4.472;2023-07-13T13:25:20;22.29;59.02
66670;DHT22;53568;52.164;4.472;2023-07-13T13:27:46;22.41;59.02
66670;DHT22;53568;52.164;4.472;2023-07-13T13:30:18;22.39;58.28
66670;DHT22;53568;52.164;4.472;2023-07-13T13:32:46;22.35;58.68
66670;DHT22;53568;52.164;4.472;2023-07-13T13:35:20;22.34;58.01
66670;DHT22;53568;52.164;4.472;2023-07-13T13:37:46;22.12;57.63
66670;DHT22;53568;52.164;4.472;2023-07-13T13:40:20;22.12;58.23
66670;DHT22;53568;52.164;4.472;2023-07-13T13:42:50;22.08;58.55
66670;DHT22;53568;52.164;4.472;2023-07-13T13:45:18;22.15;57.92
66670;DHT22;53568;52.164;4.472;2023-07-13T13:47:44;22.22;58.81
66670;DHT22;53568;52.164;4.472;2023-07-13T13:50:21;22.32;59.13
66670;DHT22;53568;52.164;4.472;2023-07-13T13:52:48;22.52;58.21
66670;DHT22;53568;52.164;4.472;2023-07-13T13:55:22;22.56;59.00
66670;DHT22;53568;52.164;4.472;2023-07-13T13:57:49;22.62;57.77
66670;DHT22;53568;52.164;4.472;2023-07-13T14:00:20;22.72;57.12
66670;DHT22;53568;52.164;4.472;2023-07-13T14:02:47;22.79;57.61
66670;DHT22;53568;52.164;4.472;2023-07-13T14:05:22;22.77;57.21
66670;DHT22;53568;52.164;4.472;2023-07-13T14:07:48;22.85;57.33
66670;DHT22;53568;52.164;4.472;2023-07-13T14:10:17;22.86;56.76
66670;DHT22;53568;52.164;4.472;2023-07-13T14:12:45;22.95;57.16
66670;DHT22;53568;52.164;4.472;2023-07-13T14:15:24;22.99;57.16
66670;DHT22;53568;52.164;4.472;2023-07-13T14:17:51;22.99;56.66
66670;DHT22;53568;52.164;4.472;2023-07-13T14:20:19;22.89;56.77
66670;DHT22;53568;52.164;4.472;2023-07-13T14:22:45;22.83;56.41
66670;DHT22;53568;52.164;4.472;2023-07-13T14:25:16;22.70;57.45
66670;DHT22;53568;52.164;4.472;2023-07-13T14:27:43;22.59;57.73
66670;DHT22;53568;52.164;4.472;2023-07-13T14:30:18;22.42;58.90
66670;DHT22;53568;52.164;4.472;2023-07-13T14:32:45;22.53;59.39
66670;DHT22;53568;52.164;4.472;2023-07-13T14:35:12;22.72;59.50
66670;DHT22;53568;52.164;4.472;2023-07-13T14:37:39;22.85;58.72
66670;DHT22;53568;52.164;4.472;2023-07-13T14:40:30;22.83;57.74
66670;DHT22;53568;52.164;4.472;2023-07-13T14:42:55;22.73;58.48
66670;DHT22;53568;52.164;4.472;2023-07-13T14:45:21;22.79;58.92
66670;DHT22;53568;52.164;4.472;2023-07-13T14:47:48;22.77;58.36
66670;DHT22;53568;52.164;4.472;2023-07-13T14:50:20;22.69;58.86
66670;DHT22;53568;52.164;4.472;2023-07-13T14:52:46;22.75;59.65
66670;DHT22;53568;52.164;4.472;2023-07-13T14:55:18;22.77;59.12
66670;DHT22;53568;52.164;4.472;2023-07-13T14:57:44;22.82;58.84
66670;DHT22;53568;52.164;4.472;2023-07-13T15:00:18;22.79;58.89
66670;DHT22;53568;52.164;4.472;2023-07-13T15:02:48;22.82;58.85
66670;DHT22;53568;52.164;4.472;2023-07-13T15:05:25;22.80;59.53
66670;DHT22;53568;52.164;4.472;2023-07-13T15:07:52;22.90;59.30
66670;DHT22;53568;52.164;4.472;2023-07-13T15:10:23;22.83;58.76
66670;DHT22;53568;52.164;4.472;2023-07-13T15:12:53;22.83;58.88
66670;DHT22;53568;52.164;4.472;2023-07-13T15:15:19;22.90;57.93
66670;DHT22;53568;52.164;4.472;2023-07-13T15:17:47;22.93;57.83
66670;DHT22;53568;52.164;4.472;2023-07-13T15:22:42;23.03;58.24
66670;DHT22;53568;52.164;4.472;2023-07-13T15:25:21;23.03;57.17
66670;DHT22;53568;52.164;4.472;2023-07-13T15:27:46;23.09;56.47
66670;DHT22;53568;52.164;4.472;2023-07-13T15:30:13;23.09;56.75
66670;DHT22;53568;52.164;4.472;2023-07-13T15:32:41;23.03;56.79
66670;DHT22;53568;52.164;4.472;2023-07-13T15:35:19;22.96;57.54
66670;DHT22;53568;52.164;4.472;2023-07-13T15:37:45;22.99;57.25
66670;DHT22;53568;52.164;4.472;2023-07-13T15:40:12;23.09;56.42
66670;DHT22;53568;52.164;4.472;2023-07-13T15:42:43;23.09;56.36
66670;DHT22;53568;52.164;4.472;2023-07-13T15:45:20;22.89;56.23
66670;DHT22;53568;52.164;4.472;2023-07-13T15:47:46;22.88;57.26
66670;DHT22;53568;52.164;4.472;2023-07-13T15:50:22;22.88;57.55
66670;DHT22;53568;52.164;4.472;2023-07-13T15:52:52;22.93;57.78
66670;DHT22;53568;52.164;4.472;2023-07-13T15:55:19;22.96;57.65
66670;DHT22;53568;52.164;4.472;2023-07-13T15:57:50;23.12;57.13
66670;DHT22;53568;52.164;4.472;2023-07-13T16:00:25;22.92;56.75
66670;DHT22;53568;52.164;4.472;2023-07-13T16:02:52;22.86;58.04